Time;durP1;ratioP1;P1;durP2;ratioP2;P2;SDS_P1;SDS_P2;PMS_P1;PMS_P2;Temp;Humidity;BMP_temperature;BMP_pressure;BME280_temperature;BME280_humidity;BME280_pressure;Samples;Min_cycle;Max_cycle;Signal;HPM_P1;HPM_P2
2022/04/17 00:06:52;;;;;;;;;;;5.10;99.90;;;;;;4995177;28;19996;-78
2022/04/17 00:12:23;;;;;;;;;;;;;;;;;;4995102;28;20012;-79
2022/04/17 00:23:58;;;;;;;;;;;4.70;99.90;;;;;;4995391;28;20396;-77
2022/04/17 00:33:02;;;;;;;;;;;4.60;99.90;;;;;;4994746;28;20392;-77
2022/04/17 00:38:38;;;;;;;;;;;;;;;;;;4995011;28;19921;-79
2022/04/17 00:44:27;;;;;;;;;;;4.40;99.90;;;;;;4994026;28;19968;-79
2022/04/17 00:49:57;;;;;;;;;;;4.40;99.90;;;;;;4994645;28;19936;-79
2022/04/17 00:52:22;;;;;;;;;;;;;;;;;;4994594;28;19913;-80
2022/04/17 00:57:52;;;;;;;;;;;;;;;;;;4994877;28;19956;-77
2022/04/17 01:00:51;;;;;;;;;;;4.20;99.90;;;;;;4994509;28;19910;-77
2022/04/17 01:03:38;;;;;;;;;;;4.20;99.90;;;;;;4994198;28;19913;-77
2022/04/17 01:06:40;;;;;;;;;;;4.20;99.90;;;;;;4994560;28;20357;-77
2022/04/17 01:09:06;;;;;;;;;;;4.10;99.90;;;;;;4994928;28;19910;-78
2022/04/17 01:11:42;;;;;;;;;;;4.10;99.90;;;;;;4994543;28;20395;-78
2022/04/17 01:17:12;;;;;;;;;;;;;;;;;;4987952;28;19920;-77
2022/04/17 01:22:50;;;;;;;;;;;3.90;99.90;;;;;;4993311;28;20001;-77
2022/04/17 01:28:18;;;;;;;;;;;3.90;99.90;;;;;;4994575;28;19932;-80
2022/04/17 01:37:00;;;;;;;;;;;3.70;99.90;;;;;;4994377;28;19921;-80
2022/04/17 01:48:17;;;;;;;;;;;3.60;99.90;;;;;;4994264;28;20013;-77
2022/04/17 01:53:45;;;;;;;;;;;;;;;;;;4994456;28;19925;-78
2022/04/17 01:59:29;;;;;;;;;;;3.60;99.90;;;;;;4998125;28;19917;-77
2022/04/17 02:04:57;;;;;;;;;;;3.50;99.90;;;;;;4997565;28;19921;-77
2022/04/17 02:10:08;;;;;;;;;;;3.40;99.90;;;;;;4998161;28;19964;-80
2022/04/17 02:12:34;;;;;;;;;;;3.40;99.90;;;;;;4997460;28;19921;-80
2022/04/17 02:14:59;;;;;;;;;;;3.40;99.90;;;;;;4997562;28;20063;-80
2022/04/17 02:20:28;;;;;;;;;;;3.30;99.90;;;;;;4997397;28;19960;-80
2022/04/17 02:22:53;;;;;;;;;;;3.20;99.90;;;;;;4997477;28;19913;-80
2022/04/17 02:28:22;;;;;;;;;;;3.20;99.90;;;;;;4978271;28;19968;-80
2022/04/17 02:31:15;;;;;;;;;;;3.20;99.90;;;;;;4977781;28;19949;-80
2022/04/17 02:36:44;;;;;;;;;;;3.10;99.90;;;;;;4997374;28;19964;-80
2022/04/17 02:42:27;;;;;;;;;;;3.10;99.90;;;;;;4996818;28;19920;-77
2022/04/17 02:45:03;;;;;;;;;;;3.00;99.90;;;;;;4996605;28;19914;-77
2022/04/17 02:47:51;;;;;;;;;;;3.00;99.90;;;;;;4996940;28;20001;-77
2022/04/17 02:50:20;;;;;;;;;;;2.90;99.90;;;;;;4996649;28;19910;-77
2022/04/17 02:55:48;;;;;;;;;;;2.90;99.90;;;;;;4997150;28;20052;-80
2022/04/17 03:07:04;;;;;;;;;;;2.80;1.00;;;;;;4995932;28;19920;-80
2022/04/17 03:12:35;;;;;;;;;;;2.70;1.00;;;;;;4996110;28;19925;-80
2022/04/17 03:18:05;;;;;;;;;;;2.70;1.00;;;;;;4996759;28;20017;-81
2022/04/17 03:26:41;;;;;;;;;;;2.60;1.00;;;;;;4996700;28;19917;-81
2022/04/17 03:31:51;;;;;;;;;;;2.60;1.00;;;;;;4996332;28;20036;-81
2022/04/17 03:37:19;;;;;;;;;;;2.50;1.00;;;;;;4996161;28;20424;-81
2022/04/17 03:45:50;;;;;;;;;;;2.40;1.00;;;;;;4985200;28;19920;-77
2022/04/17 03:54:40;;;;;;;;;;;2.40;1.00;;;;;;4995505;28;20016;-77
2022/04/17 04:00:10;;;;;;;;;;;2.30;1.00;;;;;;4995486;28;19917;-81
2022/04/17 04:03:03;;;;;;;;;;;2.30;1.00;;;;;;4995490;28;19997;-81
2022/04/17 04:08:31;;;;;;;;;;;2.20;1.00;;;;;;4995611;28;19937;-81
2022/04/17 04:10:57;;;;;;;;;;;2.20;1.00;;;;;;4996103;28;19910;-81
2022/04/17 04:16:26;;;;;;;;;;;2.20;1.00;;;;;;4976045;28;19964;-81
2022/04/17 04:21:54;;;;;;;;;;;2.20;1.00;;;;;;4975948;28;19988;-81
2022/04/17 04:33:10;;;;;;;;;;;2.20;1.00;;;;;;4995249;28;20352;-81
2022/04/17 04:41:41;;;;;;;;;;;2.10;1.00;;;;;;4995523;28;19976;-81
2022/04/17 04:46:51;;;;;;;;;;;2.20;1.00;;;;;;4994528;28;19917;-81
2022/04/17 04:52:39;;;;;;;;;;;2.20;1.00;;;;;;4994145;28;20308;-81
2022/04/17 04:58:07;;;;;;;;;;;2.30;1.00;;;;;;4994706;28;20392;-81
2022/04/17 05:03:36;;;;;;;;;;;2.40;1.00;;;;;;4994682;28;20320;-81
2022/04/17 05:09:05;;;;;;;;;;;2.40;1.00;;;;;;4994785;28;19977;-81
2022/04/17 05:11:42;;;;;;;;;;;2.50;1.00;;;;;;4994899;28;19914;-78
2022/04/17 05:20:14;;;;;;;;;;;2.60;1.00;;;;;;4994495;28;19917;-77
2022/04/17 05:23:03;;;;;;;;;;;2.70;1.00;;;;;;4994452;28;19926;-77
2022/04/17 05:25:31;;;;;;;;;;;2.70;1.00;;;;;;4994566;28;19913;-80
2022/04/17 05:31:00;;;;;;;;;;;2.90;1.00;;;;;;4998290;28;20017;-81
2022/04/17 05:36:29;;;;;;;;;;;3.10;1.00;;;;;;4998411;28;19917;-81
2022/04/17 05:44:48;;;;;;;;;;;3.40;1.00;;;;;;4997459;28;19924;-81
2022/04/17 05:50:17;;;;;;;;;;;3.60;1.00;;;;;;4998064;28;20285;-81
2022/04/17 05:58:48;;;;;;;;;;;3.90;1.00;;;;;;4997717;28;20280;-77
2022/04/17 06:01:51;;;;;;;;;;;4.10;1.00;;;;;;4997819;28;19910;-77
2022/04/17 06:04:17;;;;;;;;;;;;;;;;;;4997529;28;19917;-73
2022/04/17 06:06:42;;;;;;;;;;;4.40;1.00;;;;;;4998119;28;20269;-73
2022/04/17 06:09:15;;;;;;;;;;;4.50;1.00;;;;;;4997772;28;19993;-73
2022/04/17 06:11:42;;;;;;;;;;;4.70;1.00;;;;;;4998072;28;19926;-73
2022/04/17 06:14:15;;;;;;;;;;;4.90;1.00;;;;;;4995699;28;19928;-73
2022/04/17 06:16:47;;;;;;;;;;;5.00;1.00;;;;;;4994484;28;19918;-73
2022/04/17 06:19:21;;;;;;;;;;;5.20;99.90;;;;;;4997723;28;19910;-73
2022/04/17 06:21:51;;;;;;;;;;;5.40;99.90;;;;;;4997590;28;20365;-73
2022/04/17 06:24:21;;;;;;;;;;;5.60;99.90;;;;;;4997209;28;19921;-73
2022/04/17 06:29:31;;;;;;;;;;;5.90;99.90;;;;;;4997280;28;19965;-78
2022/04/17 06:31:57;;;;;;;;;;;6.00;99.90;;;;;;4997443;28;20280;-79
2022/04/17 06:34:39;;;;;;;;;;;6.30;99.90;;;;;;4996749;28;19922;-78
2022/04/17 06:43:10;;;;;;;;;;;6.90;99.90;;;;;;4989071;28;19929;-78
2022/04/17 06:45:57;;;;;;;;;;;7.00;99.90;;;;;;4996322;28;20277;-78
2022/04/17 06:51:26;;;;;;;;;;;7.50;99.90;;;;;;4996859;28;19952;-78
2022/04/17 06:54:09;;;;;;;;;;;;;;;;;;5011634;28;19953;-78
2022/04/17 07:05:45;;;;;;;;;;;8.30;99.90;;;;;;4993545;28;19929;-77
2022/04/17 07:11:23;;;;;;;;;;;8.60;99.90;;;;;;4996534;28;19917;-75
2022/04/17 07:16:51;;;;;;;;;;;8.90;99.90;;;;;;4995747;28;19926;-80
2022/04/17 07:22:20;;;;;;;;;;;;;;;;;;4996327;28;19925;-78
2022/04/17 07:25:04;;;;;;;;;;;9.30;99.90;;;;;;4995898;28;19910;-79
2022/04/17 07:28:03;;;;;;;;;;;9.40;99.90;;;;;;4997081;28;19945;-83
2022/04/17 07:39:19;;;;;;;;;;;9.90;99.90;;;;;;4996131;28;20001;-84
2022/04/17 07:41:46;;;;;;;;;;;10.00;99.90;;;;;;4995000;28;20012;-77
2022/04/17 07:47:14;;;;;;;;;;;10.10;99.90;;;;;;4993327;28;19920;-81
2022/04/17 07:52:43;;;;;;;;;;;10.40;99.90;;;;;;4989102;28;19921;-71
2022/04/17 07:55:11;;;;;;;;;;;10.50;99.90;;;;;;4995619;28;19910;-71
2022/04/17 08:00:22;;;;;;;;;;;;;;;;;;4995417;28;19963;-70
2022/04/17 08:03:08;;;;;;;;;;;10.80;99.90;;;;;;4994788;28;20300;-73
2022/04/17 08:05:40;;;;;;;;;;;10.90;99.90;;;;;;4995183;28;19914;-70
2022/04/17 08:08:06;;;;;;;;;;;11.00;99.90;;;;;;4995305;28;19944;-70
2022/04/17 08:10:32;;;;;;;;;;;;;;;;;;4995427;28;19917;-70
2022/04/17 08:12:58;;;;;;;;;;;11.20;99.90;;;;;;4996989;28;19918;-70
2022/04/17 08:21:30;;;;;;;;;;;;;;;;;;4986354;28;20372;-70
2022/04/17 08:23:56;;;;;;;;;;;11.60;99.90;;;;;;4994828;28;19961;-70
2022/04/17 08:26:22;;;;;;;;;;;;;;;;;;4994997;28;19953;-70
2022/04/17 08:28:48;;;;;;;;;;;11.70;99.90;;;;;;4994446;28;20329;-75
2022/04/17 08:37:15;;;;;;;;;;;12.00;99.90;;;;;;4994719;28;19964;-77
2022/04/17 08:40:09;;;;;;;;;;;12.10;99.90;;;;;;4976172;28;19918;-80
2022/04/17 08:43:03;;;;;;;;;;;12.20;99.90;;;;;;4994850;28;19918;-79
2022/04/17 08:45:51;;;;;;;;;;;12.40;99.90;;;;;;4983036;28;19916;-77
2022/04/17 08:51:27;;;;;;;;;;;12.60;99.90;;;;;;4994554;28;19964;-79
2022/04/17 08:53:53;;;;;;;;;;;12.80;99.90;;;;;;4994303;28;19918;-70
2022/04/17 08:56:20;;;;;;;;;;;12.90;99.90;;;;;;4994424;28;19960;-70
2022/04/17 08:58:51;;;;;;;;;;;;;;;;;;4994898;28;19914;-74
2022/04/17 09:01:39;;;;;;;;;;;13.10;99.90;;;;;;4995049;28;20392;-83
2022/04/17 09:04:15;;;;;;;;;;;13.20;99.90;;;;;;4994148;28;20009;-83
2022/04/17 09:07:15;;;;;;;;;;;13.30;99.90;;;;;;4994715;28;19918;-83
2022/04/17 09:10:09;;;;;;;;;;;13.30;99.90;;;;;;4994763;28;19925;-77
2022/04/17 09:12:35;;;;;;;;;;;;;;;;;;4994666;28;19958;-72
2022/04/17 09:15:01;;;;;;;;;;;;;;;;;;4992970;28;19968;-76
2022/04/17 09:17:26;;;;;;;;;;;;;;;;;;4993638;28;19940;-79
2022/04/17 09:19:52;;;;;;;;;;;13.40;99.90;;;;;;4993145;28;20432;-72
2022/04/17 09:22:18;;;;;;;;;;;13.50;99.90;;;;;;4993201;28;19924;-72
2022/04/17 09:24:43;;;;;;;;;;;13.70;99.90;;;;;;4993503;28;20392;-80
2022/04/17 09:27:10;;;;;;;;;;;13.90;99.90;;;;;;4993700;28;20280;-72
2022/04/17 09:29:37;;;;;;;;;;;14.00;99.90;;;;;;4992888;28;19914;-71
2022/04/17 09:32:12;;;;;;;;;;;14.00;99.90;;;;;;4993124;28;19953;-70
2022/04/17 09:34:38;;;;;;;;;;;;;;;;;;4993682;28;19976;-70
2022/04/17 09:37:13;;;;;;;;;;;14.20;99.90;;;;;;4994054;28;20354;-70
2022/04/17 09:43:15;;;;;;;;;;;14.50;99.90;;;;;;4994552;28;19920;-84
2022/04/17 09:45:57;;;;;;;;;;;14.60;99.90;;;;;;4992766;28;19914;-70
2022/04/17 09:48:22;;;;;;;;;;;14.40;99.90;;;;;;4994297;28;20254;-70
2022/04/17 09:50:51;;;;;;;;;;;14.40;99.90;;;;;;4993672;28;19921;-70
2022/04/17 09:53:17;;;;;;;;;;;;;;;;;;4994285;28;19910;-70
2022/04/17 09:55:43;;;;;;;;;;;14.40;99.90;;;;;;4993834;28;19914;-70
2022/04/17 09:58:11;;;;;;;;;;;14.40;99.90;;;;;;4989556;28;19917;-70
2022/04/17 10:00:45;;;;;;;;;;;14.50;99.90;;;;;;4981191;28;19926;-70
2022/04/17 10:06:14;;;;;;;;;;;14.70;99.90;;;;;;4994042;28;19956;-77
2022/04/17 10:11:43;;;;;;;;;;;15.20;99.90;;;;;;4993891;28;19916;-73
2022/04/17 10:14:39;;;;;;;;;;;15.50;99.90;;;;;;4994342;28;19921;-86
2022/04/17 10:20:08;;;;;;;;;;;15.70;99.90;;;;;;4998292;28;19968;-86
2022/04/17 10:29:03;;;;;;;;;;;16.20;99.90;;;;;;4997836;28;20424;-83
2022/04/17 10:34:51;;;;;;;;;;;16.00;99.90;;;;;;4992367;28;20435;-82
2022/04/17 10:46:26;;;;;;;;;;;16.50;99.90;;;;;;4997446;28;19948;-85
2022/04/17 10:51:55;;;;;;;;;;;16.60;99.90;;;;;;4997535;28;19968;-85
2022/04/17 10:54:21;;;;;;;;;;;16.70;99.90;;;;;;4997534;28;19914;-85
2022/04/17 10:59:50;;;;;;;;;;;16.70;99.90;;;;;;4991025;28;19916;-85
2022/04/17 11:06:08;;;;;;;;;;;16.70;99.90;;;;;;4996356;28;20337;-85
2022/04/17 11:08:57;;;;;;;;;;;16.70;99.90;;;;;;4996907;28;19914;-85
2022/04/17 11:11:43;;;;;;;;;;;17.00;99.90;;;;;;4956246;29;19918;-85
2022/04/17 11:20:15;;;;;;;;;;;17.20;99.90;;;;;;4974960;28;19916;-83
2022/04/17 11:31:43;;;;;;;;;;;17.10;99.90;;;;;;4974687;28;19976;-83
2022/04/17 11:34:08;;;;;;;;;;;17.30;99.90;;;;;;4974730;28;20374;-82
2022/04/17 11:36:51;;;;;;;;;;;17.50;99.90;;;;;;4978784;28;19914;-83
2022/04/17 11:39:51;;;;;;;;;;;17.60;99.90;;;;;;4974908;28;19910;-83
2022/04/17 11:48:28;;;;;;;;;;;17.70;99.90;;;;;;4976001;28;20427;-83
2022/04/17 11:53:57;;;;;;;;;;;17.50;99.90;;;;;;4986834;28;20433;-82
2022/04/17 11:57:00;;;;;;;;;;;17.40;99.90;;;;;;4991224;28;19954;-83
2022/04/17 12:02:28;;;;;;;;;;;17.70;99.90;;;;;;4993129;28;20064;-82
2022/04/17 12:04:55;;;;;;;;;;;;;;;;;;4992501;28;20004;-81
2022/04/17 12:10:23;;;;;;;;;;;17.80;99.90;;;;;;4992917;28;19964;-81
2022/04/17 12:12:49;;;;;;;;;;;17.90;99.90;;;;;;4992997;28;19960;-82
2022/04/17 12:15:18;;;;;;;;;;;;;;;;;;4993376;28;20262;-85
2022/04/17 12:33:18;;;;;;;;;;;18.20;99.90;;;;;;4978312;28;19918;-77
2022/04/17 12:35:44;;;;;;;;;;;18.30;99.90;;;;;;4981735;28;19910;-72
2022/04/17 12:38:15;;;;;;;;;;;;;;;;;;4994980;28;20362;-72
2022/04/17 12:40:44;;;;;;;;;;;18.30;99.90;;;;;;4994464;28;19922;-71
2022/04/17 12:43:16;;;;;;;;;;;18.40;99.90;;;;;;4994711;28;19918;-72
2022/04/17 12:45:55;;;;;;;;;;;18.40;99.90;;;;;;4995038;28;19948;-83
2022/04/17 12:48:27;;;;;;;;;;;;;;;;;;4994252;28;19917;-79
2022/04/17 12:50:53;;;;;;;;;;;;;;;;;;4993618;28;19914;-79
2022/04/17 12:53:18;;;;;;;;;;;18.50;99.90;;;;;;4975272;28;20001;-79
2022/04/17 12:55:44;;;;;;;;;;;18.60;99.90;;;;;;4985125;28;20377;-79
2022/04/17 12:58:15;;;;;;;;;;;;;;;;;;4994444;28;19921;-79
2022/04/17 13:00:54;;;;;;;;;;;18.70;99.90;;;;;;4994503;28;19921;-81
2022/04/17 13:03:19;;;;;;;;;;;18.70;99.90;;;;;;4993256;28;20008;-81
2022/04/17 13:06:11;;;;;;;;;;;18.80;99.90;;;;;;5009412;28;20008;-81
2022/04/17 13:09:12;;;;;;;;;;;18.90;99.90;;;;;;4994224;28;19996;-81
2022/04/17 13:11:43;;;;;;;;;;;18.80;99.90;;;;;;4994275;28;19964;-81
2022/04/17 13:14:45;;;;;;;;;;;18.80;99.90;;;;;;4994567;28;19922;-85
2022/04/17 13:17:33;;;;;;;;;;;19.00;99.90;;;;;;4993466;28;20012;-78
2022/04/17 13:26:04;;;;;;;;;;;19.00;99.90;;;;;;4993916;28;19917;-79
2022/04/17 13:31:51;;;;;;;;;;;18.90;99.90;;;;;;4994997;28;19970;-84
2022/04/17 13:42:48;;;;;;;;;;;18.90;99.90;;;;;;4993905;28;19920;-81
2022/04/17 13:45:14;;;;;;;;;;;19.10;99.90;;;;;;4992640;28;20008;-80
2022/04/17 13:47:45;;;;;;;;;;;;;;;;;;4993910;28;19935;-81
2022/04/17 13:50:11;;;;;;;;;;;19.20;99.90;;;;;;4994158;28;19914;-81
2022/04/17 13:52:36;;;;;;;;;;;19.30;99.90;;;;;;4996294;28;20017;-81
2022/04/17 13:55:02;;;;;;;;;;;;;;;;;;4996165;28;19918;-82
2022/04/17 13:57:28;;;;;;;;;;;19.10;99.90;;;;;;4997442;28;19957;-81
2022/04/17 13:59:53;;;;;;;;;;;19.00;99.90;;;;;;4996013;28;19932;-78
2022/04/17 14:02:19;;;;;;;;;;;18.90;99.90;;;;;;4996619;28;19949;-78
2022/04/17 14:04:45;;;;;;;;;;;19.00;99.90;;;;;;4996318;28;19961;-77
2022/04/17 14:07:10;;;;;;;;;;;19.00;99.90;;;;;;4996898;28;20295;-78
2022/04/17 14:12:39;;;;;;;;;;;19.30;99.90;;;;;;4997407;28;19968;-78
2022/04/17 14:15:09;;;;;;;;;;;19.30;99.90;;;;;;4997485;28;19914;-78
2022/04/17 14:17:45;;;;;;;;;;;19.40;99.90;;;;;;5013141;28;20000;-78
2022/04/17 14:20:28;;;;;;;;;;;19.40;99.90;;;;;;4997247;28;20366;-79
2022/04/17 14:23:09;;;;;;;;;;;19.40;99.90;;;;;;4997421;28;20329;-77
2022/04/17 14:25:40;;;;;;;;;;;19.50;99.90;;;;;;4997370;28;19960;-78
2022/04/17 14:28:09;;;;;;;;;;;19.50;99.90;;;;;;4997424;28;19910;-77
2022/04/17 14:30:51;;;;;;;;;;;;;;;;;;4997636;28;19910;-77
2022/04/17 14:33:45;;;;;;;;;;;19.60;99.90;;;;;;4997492;28;19910;-77
2022/04/17 14:39:13;;;;;;;;;;;19.70;99.90;;;;;;4997235;28;19917;-78
2022/04/17 14:41:58;;;;;;;;;;;19.70;99.90;;;;;;4997389;28;20357;-77
2022/04/17 14:44:33;;;;;;;;;;;19.70;99.90;;;;;;4996941;28;19918;-78
2022/04/17 14:46:59;;;;;;;;;;;20.00;99.90;;;;;;4997477;28;19955;-73
2022/04/17 14:49:25;;;;;;;;;;;20.00;99.90;;;;;;4996851;28;19910;-74
2022/04/17 14:51:51;;;;;;;;;;;20.00;99.90;;;;;;4997239;28;20285;-74
2022/04/17 14:54:21;;;;;;;;;;;20.10;99.90;;;;;;4996850;28;19920;-74
2022/04/17 14:57:09;;;;;;;;;;;21.90;99.90;;;;;;4997144;28;19933;-74
2022/04/17 14:59:40;;;;;;;;;;;23.80;99.90;;;;;;4996858;28;20048;-74
2022/04/17 15:02:21;;;;;;;;;;;25.10;99.90;;;;;;4996512;28;19917;-77
2022/04/17 15:04:47;;;;;;;;;;;26.50;99.90;;;;;;4997026;28;19964;-76
2022/04/17 15:07:12;;;;;;;;;;;27.00;99.90;;;;;;4996744;28;19960;-76
2022/04/17 15:09:38;;;;;;;;;;;;;;;;;;4996464;28;19968;-76
2022/04/17 15:12:04;;;;;;;;;;;28.70;99.90;;;;;;4996732;28;19956;-81
2022/04/17 15:15:00;;;;;;;;;;;28.90;99.90;;;;;;4996468;28;19918;-81
2022/04/17 15:20:51;;;;;;;;;;;30.90;99.90;;;;;;4996390;28;19917;-81
2022/04/17 15:23:27;;;;;;;;;;;31.30;99.90;;;;;;4981968;28;19917;-81
2022/04/17 15:26:04;;;;;;;;;;;31.50;99.90;;;;;;4996251;28;20357;-81
2022/04/17 15:28:39;;;;;;;;;;;31.80;99.90;;;;;;4996146;28;19913;-81
2022/04/17 15:31:09;;;;;;;;;;;32.50;99.90;;;;;;4996320;28;19921;-81
2022/04/17 15:33:52;;;;;;;;;;;33.00;99.90;;;;;;4996573;28;19914;-78
2022/04/17 15:36:33;;;;;;;;;;;33.00;99.90;;;;;;4995751;28;19914;-78
2022/04/17 15:40:28;;;;;;;;;;;;;;;;;;5125834;27;19922;-74
2022/04/17 15:42:54;;;;;;;;;;;;;;;;;;5136213;27;19917;-73
2022/04/17 15:48:10;;;;;;;;;;;32.90;99.90;;;;;;5094987;28;19966;-73
2022/04/17 15:50:37;;;;;;;;;;;33.70;99.90;;;;;;5106429;28;19923;-73
2022/04/17 15:53:05;;;;;;;;;;;34.00;99.90;;;;;;5109179;28;20355;-73
2022/04/17 15:55:34;;;;;;;;;;;34.00;99.90;;;;;;5111186;28;19919;-73
2022/04/17 15:58:00;;;;;;;;;;;;;;;;;;5101316;28;19916;-73
2022/04/17 16:00:26;;;;;;;;;;;34.00;99.90;;;;;;5124896;28;19912;-73
2022/04/17 16:02:52;;;;;;;;;;;33.90;99.90;;;;;;5111922;28;19908;-75
2022/04/17 16:05:18;;;;;;;;;;;;;;;;;;5111497;28;19908;-74
2022/04/17 16:07:44;;;;;;;;;;;34.30;99.90;;;;;;5111316;28;19908;-74
2022/04/17 16:10:13;;;;;;;;;;;;;;;;;;5110781;27;20455;-74
2022/04/17 16:12:39;;;;;;;;;;;35.80;99.90;;;;;;5101969;28;20013;-75
2022/04/17 16:15:05;;;;;;;;;;;;;;;;;;5111471;28;20009;-75
2022/04/17 16:17:31;;;;;;;;;;;36.60;99.90;;;;;;5110298;28;19938;-74
2022/04/17 16:19:58;;;;;;;;;;;;;;;;;;5111217;28;19947;-75
2022/04/17 16:22:24;;;;;;;;;;;36.20;99.90;;;;;;5109612;28;20367;-75
2022/04/17 16:24:50;;;;;;;;;;;;;;;;;;5100436;28;19912;-74
2022/04/17 16:27:16;;;;;;;;;;;35.40;99.90;;;;;;5111281;28;19912;-75
2022/04/17 16:29:45;;;;;;;;;;;35.50;99.90;;;;;;5110904;28;20077;-75
2022/04/17 16:32:11;;;;;;;;;;;35.70;99.90;;;;;;5111112;28;19915;-74
2022/04/17 16:34:37;;;;;;;;;;;;;;;;;;5111233;28;19917;-73
2022/04/17 16:37:04;;;;;;;;;;;36.20;99.90;;;;;;5103328;28;19919;-80
2022/04/17 16:39:29;;;;;;;;;;;36.20;99.90;;;;;;5110585;28;20004;-78
2022/04/17 16:41:55;;;;;;;;;;;36.60;99.90;;;;;;5111139;28;19908;-77
2022/04/17 16:44:21;;;;;;;;;;;37.00;99.90;;;;;;5109962;28;19908;-74
2022/04/17 16:46:46;;;;;;;;;;;37.40;99.90;;;;;;5110674;28;19912;-74
2022/04/17 16:49:15;;;;;;;;;;;37.20;99.90;;;;;;5110603;28;20002;-76
2022/04/17 16:51:41;;;;;;;;;;;36.60;99.90;;;;;;5097914;28;19994;-76
2022/04/17 16:54:15;;;;;;;;;;;36.10;99.90;;;;;;5095402;28;19947;-76
2022/04/17 16:56:45;;;;;;;;;;;35.00;99.90;;;;;;5097136;28;19912;-76
2022/04/17 16:59:14;;;;;;;;;;;34.20;99.90;;;;;;5097279;28;19998;-76
2022/04/17 17:01:40;;;;;;;;;;;;;;;;;;5108581;28;19916;-76
2022/04/17 17:04:05;;;;;;;;;;;33.20;99.90;;;;;;5110071;28;19912;-74
2022/04/17 17:06:31;;;;;;;;;;;32.70;99.90;;;;;;5096237;28;19957;-73
2022/04/17 17:08:58;;;;;;;1.85;1.10;;;;;;;;;;5085979;28;20407;-74
2022/04/17 17:11:45;;;;;;;4.70;1.20;;;32.80;99.90;;;;;;5088059;28;20193;-87
2022/04/17 17:14:28;;;;;;;1.93;1.10;;;;;;;;;;5076268;28;20409;-83
2022/04/17 17:16:54;;;;;;;1.23;0.90;;;;;;;;;;5095003;28;20473;-84
2022/04/17 17:19:28;;;;;;;2.80;1.17;;;;;;;;;;5096133;28;20415;-83
2022/04/17 17:21:58;;;;;;;3.07;1.10;;;;;;;;;;5083096;28;20415;-88
2022/04/17 17:25:03;;;;;;;1.10;1.00;;;25.70;99.90;;;;;;5095786;28;20473;-91
2022/04/17 17:30:52;;;;;;;4.33;1.33;;;;;;;;;;5091942;28;20941;-76
2022/04/17 17:33:18;;;;;;;4.93;1.50;;;;;;;;;;5075891;28;20376;-78
2022/04/17 17:35:45;;;;;;;1.10;1.00;;;;;;;;;;5088365;28;20413;-82
2022/04/17 17:38:16;;;;;;;1.83;1.10;;;;;;;;;;5095657;28;20390;-82
2022/04/17 17:40:46;;;;;;;1.40;1.13;;;;;;;;;;5094350;28;20425;-78
2022/04/17 17:43:16;;;;;;;1.00;0.90;;;;;;;;;;5095623;28;20409;-77
2022/04/17 17:45:43;;;;;;;2.40;1.10;;;;;;;;;;5095523;28;20486;-76
2022/04/17 17:48:09;;;;;;;1.13;0.97;;;;;;;;;;5094975;28;20496;-76
2022/04/17 17:51:04;;;;;;;6.87;1.17;;;17.80;99.90;;;;;;5095056;28;21003;-78
2022/04/17 17:53:42;;;;;;;3.80;1.40;;;;;;;;;;5095079;28;20419;-79
2022/04/17 17:59:58;;;;;;;2.60;1.27;;;16.50;99.90;;;;;;5095135;28;20422;-77
2022/04/17 18:02:27;;;;;;;2.10;1.00;;;16.20;99.90;;;;;;5094277;28;20421;-76
2022/04/17 18:04:53;;;;;;;2.33;1.43;;;15.90;99.90;;;;;;5095392;28;20413;-71
2022/04/17 18:14:30;;;;;;;1.07;0.97;;;15.70;99.90;;;;;;5081997;28;20413;-68
2022/04/17 18:15:35;;;;;;;0.90;0.80;;;15.00;99.90;;;;;;5079394;28;20432;-79
2022/04/17 18:18:27;;;;;;;1.70;1.53;;;14.70;99.90;;;;;;5094963;28;20419;-78
2022/04/17 18:24:15;;;;;;;0.80;0.80;;;14.40;99.90;;;;;;5094788;28;20431;-80
2022/04/17 18:27:27;;;;;;;2.40;1.20;;;14.10;99.90;;;;;;5094600;28;20456;-80
2022/04/17 18:30:40;;;;;;;10.53;1.00;;;13.90;99.90;;;;;;5091697;28;20460;-77
2022/04/17 18:33:16;;;;;;;5.37;1.20;;;13.50;99.90;;;;;;5095966;28;20412;-80
2022/04/17 18:35:44;;;;;;;3.93;1.07;;;13.30;99.90;;;;;;5094962;28;20437;-80
2022/04/17 18:38:11;;;;;;;3.37;1.40;;;13.20;99.90;;;;;;5094548;28;20864;-79
2022/04/17 18:40:38;;;;;;;1.87;1.00;;;13.10;99.90;;;;;;5094475;28;20432;-80
2022/04/17 18:43:16;;;;;;;2.53;1.13;;;12.90;99.90;;;;;;5094586;28;20388;-80
2022/04/17 18:45:46;;;;;;;1.67;1.13;;;12.60;99.90;;;;;;5088422;28;20408;-79
2022/04/17 18:48:15;;;;;;;3.13;1.20;;;12.50;99.90;;;;;;5094175;28;20426;-81
2022/04/17 18:51:33;;;;;;;1.67;1.00;;;12.40;99.90;;;;;;5088210;28;20447;-80
2022/04/17 18:53:59;;;;;;;2.67;1.00;;;12.10;99.90;;;;;;5073937;28;20368;-81
2022/04/17 18:56:40;;;;;;;1.77;0.90;;;11.90;99.90;;;;;;5089061;28;20465;-79
2022/04/17 18:59:39;;;;;;;1.60;0.83;;;12.00;99.90;;;;;;5094059;28;20178;-81
2022/04/17 19:02:10;;;;;;;1.30;1.20;;;11.60;99.90;;;;;;5094314;28;20824;-79
2022/04/17 19:04:58;;;;;;;1.37;1.20;;;11.50;99.90;;;;;;5094321;28;20499;-80
2022/04/17 19:07:45;;;;;;;4.47;1.10;;;11.30;99.90;;;;;;5097511;28;20403;-80
2022/04/17 19:10:16;;;;;;;1.63;1.40;;;11.20;99.90;;;;;;5093793;28;20440;-79
2022/04/17 19:16:05;;;;;;;2.17;1.33;;;10.90;99.90;;;;;;5093793;28;20921;-80
2022/04/17 19:18:31;;;;;;;1.43;0.97;;;10.90;99.90;;;;;;5092565;28;20407;-79
2022/04/17 19:20:57;;;;;;;11.43;3.20;;;;;;;;;;5093942;28;20472;-78
2022/04/17 19:23:28;;;;;;;1.27;1.17;;;;;;;;;;5099580;28;20186;-79
2022/04/17 19:25:54;;;;;;;4.13;1.33;;;;;;;;;;5096865;28;20865;-79
2022/04/17 19:28:22;;;;;;;17.13;4.03;;;;;;;;;;5093978;28;20868;-79
2022/04/17 19:36:40;;;;;;;510.95;84.90;;;;;;;;;;5083347;28;20263;-78
2022/04/17 19:39:26;;;;;;;517.25;87.60;;;9.90;99.90;;;;;;5093679;28;20210;-79
2022/04/17 19:41:54;;;;;;;535.22;103.65;;;;;;;;;;5080100;28;20227;-78
2022/04/17 19:44:20;;;;;;;513.43;93.43;;;;;;;;;;5093198;28;20633;-78
2022/04/17 19:46:48;;;;;;;497.70;90.65;;;;;;;;;;5098524;28;20447;-78
2022/04/17 19:49:41;;;;;;;544.13;118.70;;;9.50;99.90;;;;;;5093721;28;20194;-79
2022/04/17 19:52:22;;;;;;;2.30;1.43;;;;;;;;;;5083220;28;20183;-79
2022/04/17 19:54:52;;;;;;;8.60;5.90;;;;;;;;;;5102674;28;20506;-78
2022/04/17 19:57:18;;;;;;;7.40;2.20;;;;;;;;;;5093437;28;20395;-79
2022/04/17 20:00:03;;;;;;;4.53;1.60;;;;;;;;;;5092230;28;20383;-82
2022/04/17 20:02:29;;;;;;;3.90;1.83;;;;;;;;;;5091764;28;20416;-73
2022/04/17 20:05:04;;;;;;;10.03;2.20;;;;;;;;;;5093400;28;20821;-80
2022/04/17 20:07:30;;;;;;;4.40;1.67;;;;;;;;;;5093683;28;20772;-77
2022/04/17 20:09:58;;;;;;;9.37;2.40;;;;;;;;;;5093331;28;20466;-77
2022/04/17 20:12:29;;;;;;;8.43;2.60;;;;;;;;;;5093429;28;20895;-77
2022/04/17 20:14:55;;;;;;;467.40;98.97;;;;;;;;;;5093167;28;20409;-77
2022/04/17 20:17:21;;;;;;;80.27;33.13;;;;;;;;;;5089957;28;20179;-77
2022/04/17 20:19:52;;;;;;;491.73;98.13;;;;;;;;;;5086772;28;20887;-77
2022/04/17 20:22:28;;;;;;;488.58;94.43;;;;;;;;;;5093870;28;20269;-79
2022/04/17 20:24:54;;;;;;;474.67;90.85;;;;;;;;;;5093144;28;20181;-79
2022/04/17 20:27:34;;;;;;;228.60;52.63;;;;;;;;;;5096906;28;20182;-80
2022/04/17 20:30:05;;;;;;;483.67;101.18;;;;;;;;;;5096353;28;20520;-79
2022/04/17 20:32:31;;;;;;;450.07;80.13;;;;;;;;;;5076736;28;20147;-80
2022/04/17 20:34:58;;;;;;;495.60;97.45;;;;;;;;;;5091674;28;20480;-80
2022/04/17 20:37:24;;;;;;;6.97;1.93;;;;;;;;;;5097293;28;20190;-77
2022/04/17 20:39:50;;;;;;;5.60;1.83;;;;;;;;;;5096453;28;20451;-77
2022/04/17 20:42:17;;;;;;;10.43;1.90;;;;;;;;;;5096938;28;20394;-77
2022/04/17 20:50:45;;;;;;;460.38;81.30;;;;;;;;;;5096460;28;20796;-77
2022/04/17 20:53:09;;;;;;;117.13;39.00;;;7.80;99.90;;;;;;5093463;28;20178;-77
2022/04/17 20:55:46;;;;;;;6.30;1.97;;;;;;;;;;5096600;28;20400;-77
2022/04/17 20:58:16;;;;;;;22.00;16.87;;;;;;;;;;5096438;28;20390;-77
2022/04/17 21:00:42;;;;;;;4.83;1.57;;;;;;;;;;5096898;28;20460;-77
2022/04/17 21:03:15;;;;;;;470.50;88.68;;;;;;;;;;5091213;28;20405;-77
2022/04/17 21:05:52;;;;;;;7.03;1.83;;;;;;;;;;5088685;28;20175;-77
2022/04/17 21:08:18;;;;;;;5.87;1.80;;;;;;;;;;5089400;28;20499;-77
2022/04/17 21:10:47;;;;;;;6.47;2.67;;;;;;;;;;5102736;28;20397;-77
2022/04/17 21:13:13;;;;;;;2.80;2.60;;;;;;;;;;5096105;28;20469;-77
2022/04/17 21:15:40;;;;;;;6.07;1.90;;;;;;;;;;5102291;28;20419;-77
2022/04/17 21:18:06;;;;;;;4.47;1.83;;;;;;;;;;5104019;28;20507;-77
2022/04/17 21:20:40;;;;;;;10.10;2.20;;;;;;;;;;5096366;28;20454;-77
2022/04/17 21:23:12;;;;;;;2.30;1.53;;;;;;;;;;5096307;28;20415;-80
2022/04/17 21:25:38;;;;;;;3.93;1.37;;;;;;;;;;5095968;28;20472;-80
2022/04/17 21:28:04;;;;;;;3.07;1.33;;;;;;;;;;5095868;28;20948;-80
2022/04/17 21:30:41;;;;;;;3.37;1.30;;;;;;;;;;5095788;28;20416;-80
2022/04/17 21:33:07;;;;;;;3.47;1.30;;;;;;;;;;5082248;28;20412;-80
2022/04/17 21:35:52;;;;;;;2.90;1.30;;;;;;;;;;5098244;28;20412;-80
2022/04/17 21:38:22;;;;;;;1.83;1.50;;;;;;;;;;5085214;28;20420;-80
2022/04/17 21:40:48;;;;;;;1.47;1.30;;;;;;;;;;5095496;28;20428;-80
2022/04/17 21:43:16;;;;;;;3.60;1.27;;;;;;;;;;5095604;28;20847;-81
2022/04/17 21:45:46;;;;;;;3.90;1.10;;;;;;;;;;5095348;28;20454;-80